Time,TemperatureF,DewpointF,PressureIn,WindDirection,WindDirectionDegrees,WindSpeedMPH,WindSpeedGustMPH,Humidity,HourlyPrecipIn,Conditions,Clouds,dailyrainin,SoftwareType,DateUTC
2013-07-20 00:01:00,81.0,60.0,29.79,SE,134,1.0,16.0,49,0.00,,,0.22,,2013-07-20 07:01:00,
2013-07-20 00:12:00,81.0,60.0,29.77,SE,133,6.0,13.0,49,0.00,,,0.22,,2013-07-20 07:12:00,
2013-07-20 00:33:00,81.0,62.0,29.77,South,173,1.0,8.0,52,0.00,,,0.22,,2013-07-20 07:33:00,
2013-07-20 00:44:00,80.0,61.0,29.76,South,191,7.0,11.0,53,0.00,,,0.22,,2013-07-20 07:44:00,
2013-07-20 00:53:00,80.0,62.0,29.75,South,175,6.0,10.0,54,0.00,,,0.22,,2013-07-20 07:53:00,
2013-07-20 01:01:00,80.0,62.0,29.75,South,175,6.0,10.0,54,0.00,,,0.22,,2013-07-20 08:01:00,
2013-07-20 01:11:00,80.0,62.0,29.76,SSE,161,2.0,7.0,54,0.00,,,0.22,,2013-07-20 08:11:00,
2013-07-20 01:22:00,80.0,62.0,29.76,SSE,161,2.0,7.0,54,0.00,,,0.22,,2013-07-20 08:22:00,
2013-07-20 01:32:00,80.0,62.0,29.75,South,173,4.0,9.0,54,0.00,,,0.22,,2013-07-20 08:32:00,
2013-07-20 01:44:00,80.0,62.0,29.75,South,173,0.0,5.0,54,0.00,,,0.22,,2013-07-20 08:44:00,
2013-07-20 01:52:00,81.0,63.0,29.76,SSE,167,2.0,6.0,55,0.00,,,0.22,,2013-07-20 08:52:00,
2013-07-20 02:01:00,81.0,63.0,29.76,SSE,167,2.0,6.0,55,0.00,,,0.22,,2013-07-20 09:01:00,
2013-07-20 02:11:00,80.0,61.0,29.76,South,173,5.0,9.0,53,0.00,,,0.22,,2013-07-20 09:11:00,
2013-07-20 02:33:00,80.0,61.0,29.77,South,169,0.0,8.0,52,0.00,,,0.22,,2013-07-20 09:33:00,
2013-07-20 02:43:00,81.0,61.0,29.76,South,174,8.0,16.0,51,0.00,,,0.22,,2013-07-20 09:43:00,
2013-07-20 02:53:00,81.0,61.0,29.76,South,174,8.0,16.0,51,0.00,,,0.22,,2013-07-20 09:53:00,
2013-07-20 03:01:00,81.0,62.0,29.77,SSE,163,2.0,8.0,52,0.00,,,0.22,,2013-07-20 10:01:00,
2013-07-20 03:11:00,81.0,62.0,29.76,SSE,163,0.0,4.0,53,0.00,,,0.22,,2013-07-20 10:11:00,
2013-07-20 03:32:00,80.0,63.0,29.77,SSE,163,0.0,0.0,56,0.00,,,0.22,,2013-07-20 10:32:00,
2013-07-20 03:42:00,80.0,64.0,29.76,SSE,163,0.0,3.0,58,0.00,,,0.22,,2013-07-20 10:42:00,
2013-07-20 03:52:00,80.0,64.0,29.76,SSE,163,0.0,3.0,58,0.00,,,0.22,,2013-07-20 10:52:00,
2013-07-20 04:01:00,80.0,64.0,29.76,SSE,163,0.0,0.0,58,0.00,,,0.22,,2013-07-20 11:01:00,
2013-07-20 04:11:00,80.0,67.0,29.76,SSE,163,0.0,0.0,64,0.00,,,0.22,,2013-07-20 11:11:00,
2013-07-20 04:21:00,79.0,64.0,29.76,SSE,163,0.0,0.0,61,0.00,,,0.22,,2013-07-20 11:21:00,
2013-07-20 04:32:00,79.0,64.0,29.76,SSE,163,0.0,0.0,61,0.00,,,0.22,,2013-07-20 11:32:00,
2013-07-20 04:43:00,79.0,67.0,29.77,SSE,163,0.0,0.0,66,0.00,,,0.22,,2013-07-20 11:43:00,
2013-07-20 04:52:00,79.0,67.0,29.77,SSE,163,0.0,0.0,66,0.00,,,0.22,,2013-07-20 11:52:00,
2013-07-20 05:01:00,79.0,65.0,29.77,SSE,163,0.0,0.0,62,0.00,,,0.22,,2013-07-20 12:01:00,
2013-07-20 05:11:00,79.0,65.0,29.77,SSE,163,0.0,0.0,63,0.00,,,0.22,,2013-07-20 12:11:00,
2013-07-20 05:22:00,79.0,65.0,29.77,SSE,163,0.0,0.0,63,0.00,,,0.22,,2013-07-20 12:22:00,
2013-07-20 05:32:00,79.0,66.0,29.78,SSE,163,0.0,0.0,65,0.00,,,0.22,,2013-07-20 12:32:00,
2013-07-20 05:52:00,79.0,66.0,29.79,SSE,163,0.0,0.0,65,0.00,,,0.22,,2013-07-20 12:52:00,
2013-07-20 06:01:00,79.0,66.0,29.79,SSE,163,0.0,0.0,65,0.00,,,0.22,,2013-07-20 13:01:00,
2013-07-20 06:11:00,78.0,66.0,29.79,SSE,163,0.0,0.0,67,0.00,,,0.22,,2013-07-20 13:11:00,
2013-07-20 06:22:00,78.0,68.0,29.80,SSW,208,0.0,0.0,71,0.00,,,0.22,,2013-07-20 13:22:00,
2013-07-20 06:43:00,78.0,67.0,29.80,WSW,250,0.0,0.0,69,0.00,,,0.22,,2013-07-20 13:43:00,
2013-07-20 06:52:00,78.0,67.0,29.80,WSW,250,0.0,0.0,69,0.00,,,0.22,,2013-07-20 13:52:00,
2013-07-20 07:02:00,79.0,67.0,29.80,WSW,250,0.0,0.0,66,0.00,,,0.22,,2013-07-20 14:02:00,
2013-07-20 07:11:00,81.0,66.0,29.81,WSW,250,0.0,0.0,61,0.00,,,0.22,,2013-07-20 14:11:00,
2013-07-20 07:32:00,82.0,65.0,29.81,WSW,250,0.0,0.0,56,0.00,,,0.22,,2013-07-20 14:32:00,
2013-07-20 07:43:00,83.0,65.0,29.82,WSW,250,0.0,0.0,55,0.00,,,0.22,,2013-07-20 14:43:00,
2013-07-20 07:53:00,83.0,65.0,29.82,WSW,250,0.0,0.0,55,0.00,,,0.22,,2013-07-20 14:53:00,
2013-07-20 08:01:00,84.0,63.0,29.82,WSW,250,0.0,0.0,50,0.00,,,0.22,,2013-07-20 15:01:00,
2013-07-20 08:11:00,86.0,64.0,29.82,WSW,250,0.0,2.0,48,0.00,,,0.22,,2013-07-20 15:11:00,
2013-07-20 08:33:00,87.0,63.0,29.82,WNW,290,0.0,3.0,45,0.00,,,0.22,,2013-07-20 15:33:00,
2013-07-20 08:44:00,88.0,63.0,29.82,WNW,293,0.0,4.0,44,0.00,,,0.22,,2013-07-20 15:44:00,
2013-07-20 08:52:00,88.0,63.0,29.82,WNW,293,0.0,4.0,44,0.00,,,0.22,,2013-07-20 15:52:00,
2013-07-20 09:01:00,88.0,63.0,29.82,WNW,303,2.0,4.0,44,0.00,,,0.22,,2013-07-20 16:01:00,
2013-07-20 09:11:00,89.0,61.0,29.82,East,101,0.0,8.0,40,0.00,,,0.22,,2013-07-20 16:11:00,
2013-07-20 09:32:00,89.0,61.0,29.82,East,101,1.0,5.0,40,0.00,,,0.22,,2013-07-20 16:32:00,
2013-07-20 09:43:00,90.0,62.0,29.81,East,88,2.0,6.0,40,0.00,,,0.22,,2013-07-20 16:43:00,
2013-07-20 09:52:00,90.0,62.0,29.81,East,88,1.0,5.0,40,0.00,,,0.22,,2013-07-20 16:52:00,
2013-07-20 10:02:00,90.0,62.0,29.81,East,88,1.0,5.0,40,0.00,,,0.22,,2013-07-20 17:02:00,
2013-07-20 10:11:00,90.0,62.0,29.81,East,88,1.0,5.0,40,0.00,,,0.22,,2013-07-20 17:11:00,
2013-07-20 10:22:00,91.0,61.0,29.81,East,88,0.0,6.0,37,0.00,,,0.22,,2013-07-20 17:22:00,
2013-07-20 10:32:00,92.0,63.0,29.81,East,88,0.0,6.0,38,0.00,,,0.22,,2013-07-20 17:32:00,
2013-07-20 10:43:00,93.0,61.0,29.81,East,85,1.0,7.0,35,0.00,,,0.22,,2013-07-20 17:43:00,
2013-07-20 10:53:00,94.0,60.0,29.81,South,184,0.0,6.0,33,0.00,,,0.22,,2013-07-20 17:53:00,
2013-07-20 11:01:00,94.0,60.0,29.81,South,184,0.0,6.0,33,0.00,,,0.22,,2013-07-20 18:01:00,
2013-07-20 11:11:00,95.0,61.0,29.81,SE,146,0.0,6.0,33,0.00,,,0.22,,2013-07-20 18:11:00,
2013-07-20 11:33:00,95.0,61.0,29.80,ESE,123,0.0,2.0,33,0.00,,,0.22,,2013-07-20 18:33:00,
2013-07-20 11:43:00,97.0,60.0,29.80,ESE,123,1.0,5.0,30,0.00,,,0.22,,2013-07-20 18:43:00,
2013-07-20 11:53:00,98.0,62.0,29.80,South,188,7.0,11.0,31,0.00,,,0.22,,2013-07-20 18:53:00,
2013-07-20 12:02:00,98.0,62.0,29.80,South,188,7.0,11.0,31,0.00,,,0.22,,2013-07-20 19:02:00,
2013-07-20 12:12:00,98.0,63.0,29.80,SSE,159,0.0,11.0,32,0.00,,,0.22,,2013-07-20 19:12:00,
2013-07-20 12:32:00,98.0,62.0,29.79,SE,125,1.0,9.0,31,0.00,,,0.22,,2013-07-20 19:32:00,
2013-07-20 12:43:00,98.0,61.0,29.78,SE,136,2.0,7.0,30,0.00,,,0.22,,2013-07-20 19:43:00,
2013-07-20 13:03:00,99.0,60.0,29.77,SSE,149,1.0,10.0,28,0.00,,,0.22,,2013-07-20 20:03:00,
2013-07-20 13:12:00,100.0,61.0,29.77,SSE,161,1.0,7.0,28,0.00,,,0.22,,2013-07-20 20:12:00,
2013-07-20 13:22:00,100.0,61.0,29.77,SSE,161,1.0,7.0,28,0.00,,,0.22,,2013-07-20 20:22:00,
2013-07-20 13:32:00,100.0,61.0,29.76,South,171,2.0,10.0,28,0.00,,,0.22,,2013-07-20 20:32:00,
2013-07-20 13:43:00,100.0,60.0,29.75,SE,128,3.0,7.0,27,0.00,,,0.22,,2013-07-20 20:43:00,
2013-07-20 13:52:00,100.0,61.0,29.74,SSE,167,6.0,12.0,28,0.00,,,0.22,,2013-07-20 20:52:00,
2013-07-20 14:02:00,100.0,61.0,29.74,SSE,167,6.0,12.0,28,0.00,,,0.22,,2013-07-20 21:02:00,
2013-07-20 14:12:00,101.0,62.0,29.73,ESE,123,2.0,4.0,28,0.00,,,0.22,,2013-07-20 21:12:00,
2013-07-20 14:33:00,101.0,61.0,29.72,ESE,123,4.0,9.0,27,0.00,,,0.22,,2013-07-20 21:33:00,
2013-07-20 14:43:00,102.0,61.0,29.72,SW,215,4.0,12.0,26,0.00,,,0.22,,2013-07-20 21:43:00,
2013-07-20 14:52:00,102.0,61.0,29.72,SW,215,4.0,12.0,26,0.00,,,0.22,,2013-07-20 21:52:00,
2013-07-20 15:02:00,103.0,60.0,29.71,SW,221,0.0,11.0,25,0.00,,,0.22,,2013-07-20 22:02:00,
2013-07-20 15:12:00,104.0,60.0,29.71,SW,235,4.0,10.0,24,0.00,,,0.22,,2013-07-20 22:12:00,
2013-07-20 15:22:00,105.0,61.0,29.70,SSE,159,2.0,7.0,24,0.00,,,0.22,,2013-07-20 22:22:00,
2013-07-20 15:33:00,105.0,61.0,29.70,SSE,159,2.0,7.0,24,0.00,,,0.22,,2013-07-20 22:33:00,
2013-07-20 15:43:00,104.0,61.0,29.69,SSE,153,6.0,10.0,25,0.00,,,0.22,,2013-07-20 22:43:00,
2013-07-20 15:52:00,104.0,61.0,29.69,SSE,153,6.0,10.0,25,0.00,,,0.22,,2013-07-20 22:52:00,
2013-07-20 16:02:00,104.0,61.0,29.68,South,180,3.0,12.0,25,0.00,,,0.22,,2013-07-20 23:02:00,
2013-07-20 16:13:00,103.0,60.0,29.67,South,182,2.0,14.0,25,0.00,,,0.22,,2013-07-20 23:13:00,
2013-07-20 16:22:00,104.0,61.0,29.67,South,171,3.0,8.0,25,0.00,,,0.22,,2013-07-20 23:22:00,
2013-07-20 16:43:00,104.0,61.0,29.67,SSE,152,6.0,12.0,25,0.00,,,0.22,,2013-07-20 23:43:00,
2013-07-20 16:53:00,104.0,60.0,29.66,ESE,123,6.0,14.0,24,0.00,,,0.22,,2013-07-20 23:53:00,
2013-07-20 17:12:00,103.0,59.0,29.66,SE,140,5.0,15.0,24,0.00,,,0.22,,2013-07-21 00:12:00,
2013-07-20 17:22:00,103.0,59.0,29.66,SE,140,5.0,15.0,24,0.00,,,0.22,,2013-07-21 00:22:00,
2013-07-20 17:43:00,102.0,59.0,29.66,SSE,165,7.0,14.0,25,0.00,,,0.22,,2013-07-21 00:43:00,
2013-07-20 18:02:00,103.0,60.0,29.65,South,170,9.0,18.0,25,0.00,,,0.22,,2013-07-21 01:02:00,
2013-07-20 18:11:00,103.0,60.0,29.65,South,170,9.0,18.0,25,0.00,,,0.22,,2013-07-21 01:11:00,
2013-07-20 18:42:00,-999.0,-99.9,29.65,South,174,11.0,19.0,-999,0.00,,,-99.99,,2013-07-21 01:42:00,
2013-07-20 18:53:00,101.0,60.0,29.65,SSW,193,13.0,21.0,26,0.00,,,0.22,,2013-07-21 01:53:00,
2013-07-20 19:02:00,101.0,60.0,29.65,SSW,193,13.0,21.0,26,0.00,,,0.22,,2013-07-21 02:02:00,
2013-07-20 19:12:00,100.0,59.0,29.66,SSW,194,11.0,15.0,26,0.00,,,0.22,,2013-07-21 02:12:00,
2013-07-20 19:33:00,99.0,59.0,29.65,South,184,9.0,17.0,27,0.00,,,0.22,,2013-07-21 02:33:00,
2013-07-20 19:42:00,99.0,59.0,29.65,South,172,7.0,16.0,27,0.00,,,0.22,,2013-07-21 02:42:00,
2013-07-20 19:52:00,99.0,59.0,29.65,South,172,7.0,16.0,27,0.00,,,0.22,,2013-07-21 02:52:00,
2013-07-20 20:02:00,98.0,58.0,29.66,SSW,194,9.0,15.0,27,0.00,,,0.22,,2013-07-21 03:02:00,
2013-07-20 20:32:00,97.0,57.0,29.69,SSW,196,7.0,12.0,27,0.00,,,0.22,,2013-07-21 03:32:00,
2013-07-20 20:43:00,97.0,57.0,29.71,SSW,192,4.0,11.0,27,0.00,,,0.22,,2013-07-21 03:43:00,
2013-07-20 20:52:00,97.0,57.0,29.71,SSW,192,4.0,11.0,27,0.00,,,0.22,,2013-07-21 03:52:00,
2013-07-20 21:01:00,95.0,57.0,29.73,NNW,335,16.0,25.0,28,0.00,,,0.22,,2013-07-21 04:01:00,
2013-07-20 21:11:00,92.0,56.0,29.76,NW,315,11.0,24.0,30,0.00,,,0.22,,2013-07-21 04:11:00,
2013-07-20 21:32:00,91.0,56.0,29.76,NNW,330,17.0,31.0,31,0.00,,,0.01,,2013-07-21 04:32:00,
2013-07-20 22:42:00,78.0,62.0,29.85,NNW,347,14.0,31.0,57,0.01,,,0.02,,2013-07-21 05:42:00,
2013-07-20 23:01:00,78.0,63.0,29.85,North,360,10.0,17.0,60,0.01,,,0.02,,2013-07-21 06:01:00,
2013-07-20 23:21:00,78.0,63.0,29.85,North,355,7.0,14.0,61,0.01,,,0.02,,2013-07-21 06:21:00,
2013-07-20 23:32:00,77.0,65.0,29.85,NNW,345,3.0,8.0,67,0.04,,,0.04,,2013-07-21 06:32:00,
2013-07-20 23:42:00,75.0,65.0,29.82,SW,214,7.0,14.0,72,0.06,,,0.07,,2013-07-21 06:42:00,
2013-07-20 23:52:00,75.0,65.0,29.82,SW,214,7.0,14.0,72,0.06,,,0.07,,2013-07-21 06:52:00,